Decoded Metar for CYNE (NORWAY HOUSE ARP in MB, CANADA) (IATA:YNE) | Meteo·Mobile Aviation Weather
aviador You're here:

CYNE Decoded Metar

NORWAY HOUSE ARP in MB, CANADA
Report Time2018-08-16 00:00:00
UTC Time2018-08-16 00:49:08
Flight Rules vfr VFR
Wind200° at 08 kt
W.Decomp.*RWY 24: 5.7 kt HW 5.7 kt LCW
W.Rank200° ranks 4
Current wind is above 200° avg. (7.7)
Visibility9999 m
Phenomena:N/A
Clouds:N/A
Expected CloudBase > 2,800 ft AGL from Temp-Dew spread
CeilingNone
Temp23°C (ISA +9)
Dew Point16°C (65% RH)
AAT22.1°C
QNH1004 hPa
Density Alt2,379 ft
Elevation732 ft
Report Wrong Elevation
Raw Report
CYNE 160000Z AUTO 20008KT 9SM CLR 23/16 A2966 RMK SLP050 DENSITY
ALT 2100FT=

Extra information for CYNE:More info

Metar Taf Metar & Taf Last 4 Metars F.Rules Stats Wind Profile Meteogram Temp Stats Airport Information Weather charts Add Link Nearby VenuesMetar ALERT Operation Metar Decoded Social comments